x

Cape Edgecumbe - 25nm Ssw Of Cape Edgecumbe, Ak (46084) Wave Buoy

4:50pm - Tue 29th Jul 2014 All times are AKDT. -8 hours from GMT.

  • Sig Wave height 2.3ft
  • Peak Period 5s
  • Average Period 4s
  • Wind
    13mph, 16mph gusts
  • Sea Temp 58°f
  • Air Temp 58°f
  • Sea Pressure 1017mb
  • Cape Edgecumbe - 25nm Ssw Of Cape Edgecumbe, Ak
  • Cape Edgecumbe - 25nm Ssw Of Cape Edgecumbe, Ak

More Historic Weather Station data

Upgrade to MSW Pro to gain access to the past 30 days of data for over 8000 Wavebouys and Weather Stations around the globe.

Join Pro

Comparision Forecast

View Surf forecast
   
Tue 07/29 4:50pm 2.5ft 5s 4s 13 16 mph 1017mb 58f 58f
3:50pm 2.5ft 5s 4s 13 16 mph 1016.5mb 58f 58f
2:50pm 2.5ft 6s 4s 13 16 mph 1015.9mb 58f 58f
1:50pm 3ft 5s 4s 13 16 mph 1015.6mb 58f 57f
12:50pm 3.5ft 5s 4s 11 13 mph 1015.3mb 58f 57f
11:50am 3ft 5s 4s 9 11 mph 1015.1mb 58f 57f
10:50am 3.5ft 6s 4s 9 11 mph 1014.6mb 58f 57f
9:50am 3ft 5s 4s 11 13 mph 1014.7mb 58f 56f
8:50am 3.5ft 6s 4s 11 13 mph 1014.5mb 57f 56f
7:50am 3.5ft 5s 4s 11
mph
1014.3mb 57f 56f
6:50am 3ft 6s 4s 11 13 mph 1014.2mb 57f 56f
5:50am 3.5ft 5s 4s 13 16 mph 1014.4mb 57f 56f
4:50am 3.5ft 6s 4s 16 18 mph 1014.5mb 57f 56f
3:50am 3ft 5s 4s 13 18 mph 1014.4mb 57f 56f
2:50am 3ft 5s 4s 13 16 mph 1014.4mb 57f 56f
1:50am 3ft 6s 4s 16 18 mph 1014.8mb 57f 56f
12:50am 3ft 5s 4s 13 16 mph 1014.9mb 57f 56f
Mon 07/28 11:50pm 2.5ft 5s 4s 11 13 mph 1014.9mb 57f 56f
10:50pm 2.5ft 6s 4s 13 16 mph 1015.1mb 57f 56f
9:50pm 2.5ft 5s 4s 13 16 mph 1015.1mb 57f 56f
8:50pm 3ft 5s 4s 13 16 mph 1015mb 57f 56f
7:50pm 3ft 6s 5s 13 16 mph 1015mb 57f 56f
6:50pm 3ft 5s 5s 9 11 mph 1014.9mb 57f 56f
5:50pm 3ft 6s 5s 7 9 mph 1015mb 58f 56f
4:50pm 2.5ft 5s 5s 7
mph
1014.9mb 58f 55f
3:50pm 2.5ft 5s 5s 4
mph
1014.9mb 58f 55f
2:50pm 3ft 5s 4s 4 7 mph 1015.1mb 58f 56f
1:50pm 3.5ft 5s 4s 4
mph
1015.5mb 58f 55f
12:50pm 3.5ft 5s 4s 16 18 mph 1015.6mb 58f 56f
11:50am 4ft 5s 4s 18 20 mph 1016mb 58f 56f
10:50am 4.5ft 4s 4s 18 22 mph 1016.2mb 58f 57f
9:50am 4ft 5s 4s 20 27 mph 1016.2mb 58f 57f
8:50am 4ft 5s 4s 16 18 mph 1016.3mb 58f 56f
7:50am 4.5ft 5s 4s 18 20 mph 1016.6mb 58f 57f
6:50am 4.5ft 5s 4s 18 22 mph 1016.8mb 58f 56f
5:50am 4.5ft 5s 4s 18 22 mph 1016.7mb 58f 57f
4:50am 4.5ft 4s 4s 18 22 mph 1016.8mb 58f 57f
3:50am 4ft 5s 4s 20 25 mph 1016.6mb 58f 57f
2:50am 4ft 5s 4s 20 22 mph 1016.7mb 58f 57f
1:50am 3.5ft 4s 4s 22 27 mph 1016.8mb 58f 56f
12:50am 3ft 7s 4s 20 25 mph 1017.1mb 58f 56f
Sun 07/27 11:50pm 3ft 8s 4s 18 20 mph 1017.6mb 58f 56f
10:50pm 2.5ft 8s 5s 13 18 mph 1018mb 58f 56f
9:50pm 3ft 5s 5s 7 9 mph 1018.4mb 58f 57f
8:50pm 3ft 5s 5s 11
mph
1018.7mb 58f 56f
7:50pm 3ft 7s 5s 9
mph
1018.6mb 58f 56f
6:50pm 3ft 8s 5s 11 16 mph 1018.8mb 58f 56f
5:50pm 3ft 6s 5s 9
mph
1018.9mb 58f 57f
4:50pm 3ft 6s 5s 9
mph
1018.8mb 58f 57f
3:50pm 3ft 6s 5s 9
mph
1018.9mb 58f 57f
2:50pm 3ft 6s 5s 9 11 mph 1018.8mb 58f 57f
1:50pm 3ft 8s 5s 9 11 mph 1018.7mb 58f 57f
12:50pm 3.5ft 7s 5s 11 13 mph 1018.4mb 58f 57f
11:50am 3.5ft 7s 5s 11 13 mph 1018.4mb 57f 57f
10:50am 3.5ft 6s 5s 13 16 mph 1018.1mb 57f 57f
9:50am 3.5ft 6s 5s 13
mph
1017.9mb 57f 57f
8:50am 3.5ft 8s 5s 13 16 mph 1017.6mb 57f 57f
7:50am 3.5ft 6s 5s 13 16 mph 1017.1mb 57f 57f
6:50am 3.5ft 6s 5s 13 18 mph 1016.6mb 57f 57f
5:50am 4ft 6s 5s 16 18 mph 1016.2mb 57f 57f
4:50am 4ft 7s 5s 13 16 mph 1016mb 57f 57f
3:50am 4ft 6s 5s 13 16 mph 1015.7mb 57f 57f
2:50am 4ft 6s 5s 11 13 mph 1015.2mb 57f 57f
1:50am 4ft 7s 5s 11 13 mph 1014.8mb 57f 57f
12:50am 4.5ft 7s 5s 16 18 mph 1014.5mb 57f 57f
Sat 07/26 11:50pm 4.5ft 7s 5s 18 20 mph 1014.1mb 57f 57f
10:50pm 5ft 6s 5s 18 20 mph 1013.6mb 57f 56f
9:50pm 5ft 6s 5s 16 18 mph 1013.2mb 57f 56f
8:50pm 5ft 7s 5s 13 16 mph 1012.8mb 57f 56f
7:50pm 6ft 7s 5s 13 16 mph 1012.7mb 57f 56f
6:50pm 6ft 7s 5s 18 22 mph 1012.6mb 57f 56f
5:50pm 6.5ft 7s 5s 22 27 mph 1012.4mb 57f 56f
4:50pm 6.5ft 7s 5s 22 27 mph 1012.3mb 57f 56f
3:50pm 7ft 7s 5s 22 27 mph 1012.2mb 57f 56f
2:50pm 7ft 7s 5s 22 27 mph 1012mb 57f 56f
1:50pm 8ft 7s 5s 25 29 mph 1011.8mb 57f 56f
12:50pm 8ft 7s 5s 27 31 mph 1011.5mb 57f 56f
11:50am 8ft 7s 5s 27 31 mph 1011.4mb 57f 56f
10:50am 8ft 7s 5s 29 34 mph 1011.2mb 57f 56f
9:50am 9ft 6s 6s 31 36 mph 1010.9mb 57f 56f
8:50am 9ft 7s 6s 31 38 mph 1010.8mb 57f 56f
7:50am 8ft 7s 5s 31 36 mph 1010.6mb 57f 56f
6:50am 7ft 7s 5s 29 36 mph 1010.5mb 57f 56f
5:50am 7.5ft 6s 5s 27 34 mph 1010.5mb 57f 56f
4:50am 7ft 7s 5s 27 31 mph 1010.6mb 58f 56f
3:50am 7ft 6s 5s 27 31 mph 1010.6mb 58f 56f
2:50am 6ft 7s 5s 25 29 mph 1010.7mb 58f 56f